Captain Cook, HI

9:00 PM HST on August 30, 2014 (GMT -1000)
Bradshaw Army Air Field | Change Station
CLOSE
Current Station
Airport
Location: Bradshaw AFB,
Elevation: 6191 ft
Nearby Weather Stations

Elev 6191 ft 19.76 °N, 155.55 °W | Updated 4 minutes ago

Scattered Clouds
Scattered Clouds
55 °F
Feels Like 55 °F
N
1
Wind Variable Wind from North

Today
High -- | Low -- °F
--% Chance of Precip.
Yesterday
High -- | Low -- °F
Precip. -- in
6:07 AM 6:39 PM
Waxing Crescent, 28% visible
Pressure 29.99 in
Visibility 1.6 miles
Clouds Few 100 ft
Scattered Clouds 300 ft
Dew Point 54 °F
Humidity 97%
Rainfall 0.00 in
Snow Depth Not available.
UV 0 out of 12
Pollen Not available.
Air Quality Not available.
Flu Activity Not available.
METAR PHSF 310656Z AUTO 01001KT 1 5/8SM BR FEW001 SCT003 13/12 A3032 RMK AO2 VIS 1V1 5/8 SLP154 T01270122

More Conditions Fewer Conditions

Pressure 29.99 in
Visibility 1.6 miles
Clouds Few 100 ft
Scattered Clouds 300 ft
Dew Point 54 °F
Humidity 97%
Rainfall 0.00 in
Snow Depth Not available.
UV 0 out of 12
Pollen Not available.
Air Quality Not available.
Flu Activity Not available.
METAR PHSF 310656Z AUTO 01001KT 1 5/8SM BR FEW001 SCT003 13/12 A3032 RMK AO2 VIS 1V1 5/8 SLP154 T01270122

More Conditions Fewer Conditions

10-Day Weather Forecast

Almanac

Astronomy

Aug. 30, 2014 Rise Set
Actual Time 6:07 AM HST 6:39 PM HST
Civil Twilight 5:45 AM HST 7:02 PM HST
Nautical Twilight 5:19 AM HST 7:28 PM HST
Astronomical Twilight 4:53 AM HST 7:54 PM HST
Moon 10:22 AM HST (8/30) 10:07 PM HST (8/30)
Length of Visible Light 13h 16m
Length of Day
12h 31m
Tomorrow will be 1m 3s shorter.
Waxing Crescent, 28% of the Moon is Illuminated
Aug 31
Waxing Crescent
Sep 2
First Quarter
Sep 8
Full
Sep 15
Last Quarter
Sep 24
New

Yesterday's Extremes

State Highs State Lows

Community

WunderPhotos

Upload Photos

1,748,806 photos uploaded!

Nearby

Snow Depth

Station Depth Elevation
No new snow has been reported.

Earthquake Activity

City Distance Mag. Time & Date
No recent earthquake activity has been reported nearby.
Minimum magnitude displayed is 2.5.

Coastal Water Temperatures

Place Temperature
No Stations Reporting

Nearby Weather Stations